createdAt,value
2023-02-01T00:02:27.405Z,5.35
2023-02-01T00:04:58.929Z,5.33
2023-02-01T00:07:29.958Z,5.49
2023-02-01T00:09:59.319Z,5.87
2023-02-01T00:12:27.106Z,5.65
2023-02-01T00:14:58.302Z,5.73
2023-02-01T00:17:30.087Z,5.72
2023-02-01T00:19:57.962Z,5.93
2023-02-01T00:22:28.250Z,5.79
2023-02-01T00:25:03.780Z,6.24
2023-02-01T00:27:35.907Z,6.35
2023-02-01T00:30:07.581Z,6.39
2023-02-01T00:32:38.071Z,4.65
2023-02-01T00:35:08.914Z,6.14
2023-02-01T00:37:36.696Z,6.11
2023-02-01T00:40:05.236Z,6.30
2023-02-01T00:42:33.141Z,6.09
2023-02-01T00:45:01.023Z,6.67
2023-02-01T00:47:28.862Z,6.49
2023-02-01T00:49:58.682Z,6.34
2023-02-01T00:52:28.753Z,6.27
2023-02-01T00:54:56.945Z,6.06
2023-02-01T00:57:25.056Z,6.49
2023-02-01T00:59:52.934Z,6.70
2023-02-01T01:02:23.335Z,6.45
2023-02-01T01:04:51.246Z,6.18
2023-02-01T01:07:20.455Z,5.75
2023-02-01T01:09:54.401Z,6.11
2023-02-01T01:12:24.571Z,6.58
2023-02-01T01:14:52.416Z,6.31
2023-02-01T01:17:20.284Z,6.26
2023-02-01T01:19:51.038Z,5.85
2023-02-01T01:22:25.345Z,6.44
2023-02-01T01:24:55.742Z,6.61
2023-02-01T01:27:27.771Z,6.75
2023-02-01T01:29:55.767Z,6.08
2023-02-01T01:32:27.378Z,6.47
2023-02-01T01:34:55.389Z,6.33
2023-02-01T01:37:25.111Z,6.15
2023-02-01T01:39:53.015Z,6.25
2023-02-01T01:42:20.928Z,6.09
2023-02-01T01:45:04.729Z,6.02
2023-02-01T01:47:36.757Z,6.00
2023-02-01T01:50:14.763Z,5.57
2023-02-01T01:52:46.224Z,5.85
2023-02-01T01:55:15.873Z,6.45
2023-02-01T01:57:51.079Z,5.99
2023-02-01T02:00:23.165Z,6.18
2023-02-01T02:03:00.018Z,6.17
2023-02-01T02:05:29.503Z,6.25
2023-02-01T02:08:02.410Z,5.87
2023-02-01T02:10:44.479Z,5.95
2023-02-01T02:13:14.895Z,6.38
2023-02-01T02:15:48.449Z,6.26
2023-02-01T02:18:21.100Z,6.65
2023-02-01T02:21:06.477Z,6.60
2023-02-01T02:23:59.943Z,7.76
2023-02-01T02:26:36.041Z,7.00
2023-02-01T02:29:52.181Z,7.33
2023-02-01T02:35:10.352Z,8.02
2023-02-01T02:37:47.185Z,8.17
2023-02-01T02:40:21.927Z,7.32
2023-02-01T02:43:11.917Z,7.30
2023-02-01T02:46:01.763Z,7.74
2023-02-01T02:48:32.567Z,7.86
2023-02-01T02:51:23.617Z,7.18
2023-02-01T02:54:14.754Z,6.96
2023-02-01T02:57:03.389Z,7.60
2023-02-01T02:59:49.895Z,7.81
2023-02-01T03:02:42.551Z,7.51
2023-02-01T03:05:13.172Z,7.52
2023-02-01T03:08:07.873Z,7.65
2023-02-01T03:10:43.247Z,6.99
2023-02-01T03:13:12.808Z,7.24
2023-02-01T03:15:42.719Z,7.42
2023-02-01T03:18:17.188Z,7.27
2023-02-01T03:20:48.585Z,7.02
2023-02-01T03:23:25.673Z,6.99
2023-02-01T03:26:06.388Z,7.16
2023-02-01T03:28:36.209Z,6.79
2023-02-01T03:31:07.426Z,6.95
2023-02-01T03:33:43.533Z,6.67
2023-02-01T03:36:17.729Z,5.89
2023-02-01T03:38:53.424Z,6.23
2023-02-01T03:41:26.443Z,6.21
2023-02-01T03:43:57.407Z,6.36
2023-02-01T03:46:34.202Z,6.35
2023-02-01T03:49:12.951Z,6.84
2023-02-01T03:51:43.751Z,6.50
2023-02-01T03:54:14.275Z,6.26
2023-02-01T03:56:49.791Z,6.26
2023-02-01T03:59:20.225Z,6.66
2023-02-01T04:01:48.007Z,6.46
2023-02-01T04:04:21.219Z,7.08
2023-02-01T04:06:49.455Z,7.07
2023-02-01T04:09:19.936Z,7.27
2023-02-01T04:11:47.806Z,7.14
2023-02-01T04:14:23.018Z,7.40
2023-02-01T04:16:54.203Z,6.63
2023-02-01T04:19:23.259Z,6.34
2023-02-01T04:21:51.738Z,6.39
2023-02-01T04:24:21.253Z,6.52
2023-02-01T04:26:54.379Z,6.82
2023-02-01T04:29:22.230Z,6.67
2023-02-01T04:31:54.836Z,6.58
2023-02-01T04:34:25.905Z,6.92
2023-02-01T04:36:56.734Z,6.98
2023-02-01T04:39:30.223Z,7.04
2023-02-01T04:41:57.999Z,6.97
2023-02-01T04:44:26.115Z,6.79
2023-02-01T04:46:59.609Z,6.85
2023-02-01T04:49:28.030Z,6.93
2023-02-01T04:51:56.253Z,6.53
2023-02-01T04:54:27.074Z,6.85
2023-02-01T04:56:57.015Z,6.83
2023-02-01T04:59:24.834Z,7.00
2023-02-01T05:01:53.382Z,7.23
2023-02-01T05:04:22.339Z,7.22
2023-02-01T05:06:52.521Z,7.14
2023-02-01T05:09:22.162Z,7.36
2023-02-01T05:12:09.721Z,7.59
2023-02-01T05:14:44.534Z,7.33
2023-02-01T05:17:16.352Z,7.43
2023-02-01T05:19:47.246Z,7.23
2023-02-01T05:22:15.183Z,7.07
2023-02-01T05:24:53.531Z,6.56
2023-02-01T05:27:31.333Z,6.64
2023-02-01T05:30:03.702Z,6.21
2023-02-01T05:32:31.978Z,6.60
2023-02-01T05:35:02.686Z,6.57
2023-02-01T05:37:33.765Z,6.58
2023-02-01T05:40:03.775Z,6.66
2023-02-01T05:42:34.247Z,6.64
2023-02-01T05:45:03.725Z,6.73
2023-02-01T05:47:31.647Z,6.47
2023-02-01T05:50:02.382Z,6.31
2023-02-01T05:52:30.521Z,6.33
2023-02-01T05:54:59.777Z,6.54
2023-02-01T05:57:31.052Z,6.22
2023-02-01T06:00:05.653Z,6.13
2023-02-01T06:02:34.270Z,6.05
2023-02-01T06:05:02.397Z,6.00
2023-02-01T06:07:30.419Z,5.82
2023-02-01T06:09:58.485Z,5.84
2023-02-01T06:12:29.220Z,6.02
2023-02-01T06:15:00.231Z,5.78
2023-02-01T06:17:30.709Z,5.68
2023-02-01T06:20:12.220Z,5.88
2023-02-01T06:22:45.231Z,6.30
2023-02-01T06:25:14.500Z,6.28
2023-02-01T06:27:42.411Z,6.52
2023-02-01T06:30:14.587Z,6.20
2023-02-01T06:32:45.003Z,5.88
2023-02-01T06:35:17.455Z,5.84
2023-02-01T06:37:45.748Z,6.21
2023-02-01T06:40:15.790Z,6.26
2023-02-01T06:42:49.228Z,6.53
2023-02-01T06:45:17.268Z,6.74
2023-02-01T06:47:48.434Z,6.32
2023-02-01T06:50:17.698Z,6.36
2023-02-01T06:52:45.700Z,6.65
2023-02-01T06:55:14.028Z,6.56
2023-02-01T06:57:41.998Z,6.34
2023-02-01T07:00:14.999Z,6.49
2023-02-01T07:02:45.339Z,6.58
2023-02-01T07:05:15.868Z,6.33
2023-02-01T07:07:52.420Z,6.14
2023-02-01T07:10:23.064Z,6.19
2023-02-01T07:12:53.435Z,6.48
2023-02-01T07:15:25.234Z,6.67
2023-02-01T07:17:53.826Z,3.82
2023-02-01T07:20:23.905Z,6.33
2023-02-01T07:22:57.792Z,6.73
2023-02-01T07:25:27.280Z,6.52
2023-02-01T07:27:55.285Z,6.98
2023-02-01T07:30:30.332Z,6.45
2023-02-01T07:33:02.294Z,6.55
2023-02-01T07:35:32.403Z,6.61
2023-02-01T07:38:00.421Z,6.53
2023-02-01T07:40:29.793Z,6.34
2023-02-01T07:42:58.531Z,6.69
2023-02-01T07:45:37.040Z,6.61
2023-02-01T07:48:07.912Z,6.54
2023-02-01T07:50:43.009Z,6.69
2023-02-01T07:53:11.246Z,6.79
2023-02-01T07:55:43.091Z,6.40
2023-02-01T07:58:11.144Z,6.44
2023-02-01T08:00:59.821Z,6.77
2023-02-01T08:03:29.654Z,7.23
2023-02-01T08:05:59.071Z,6.49
2023-02-01T08:08:27.425Z,6.86
2023-02-01T08:11:05.153Z,6.76
2023-02-01T08:13:36.172Z,6.88
2023-02-01T08:16:09.659Z,6.73
2023-02-01T08:18:38.704Z,7.08
2023-02-01T08:21:10.494Z,7.12
2023-02-01T08:23:39.852Z,7.27
2023-02-01T08:26:16.879Z,6.93
2023-02-01T08:28:46.554Z,6.59
2023-02-01T08:31:16.783Z,6.48
2023-02-01T08:33:49.328Z,6.45
2023-02-01T08:36:20.649Z,4.70
2023-02-01T08:38:51.576Z,6.22
2023-02-01T08:41:22.620Z,6.33
2023-02-01T08:44:02.765Z,6.78
2023-02-01T08:46:30.666Z,6.80
2023-02-01T08:48:59.344Z,6.85
2023-02-01T08:51:31.972Z,6.95
2023-02-01T08:53:59.989Z,6.64
2023-02-01T08:56:27.894Z,7.09
2023-02-01T08:58:56.081Z,5.18
2023-02-01T09:01:26.632Z,6.65
2023-02-01T09:03:54.718Z,6.64
2023-02-01T09:06:22.838Z,6.36
2023-02-01T09:08:55.759Z,6.35
2023-02-01T09:11:26.774Z,6.24
2023-02-01T09:13:54.858Z,6.60
2023-02-01T09:16:26.021Z,6.67
2023-02-01T09:19:14.846Z,6.67
2023-02-01T09:21:47.327Z,6.94
2023-02-01T09:24:16.994Z,6.65
2023-02-01T09:26:45.703Z,6.87
2023-02-01T09:29:14.362Z,6.92
2023-02-01T09:31:57.403Z,7.02
2023-02-01T09:34:31.022Z,7.11
2023-02-01T09:36:59.268Z,6.91
2023-02-01T09:39:31.098Z,6.94
2023-02-01T09:42:05.348Z,7.01
2023-02-01T09:44:46.175Z,6.95
2023-02-01T09:47:19.611Z,7.13
2023-02-01T09:49:53.866Z,6.85
2023-02-01T09:52:29.732Z,7.27
2023-02-01T09:55:03.833Z,7.48
2023-02-01T09:57:44.284Z,7.60
2023-02-01T10:00:19.449Z,7.35
2023-02-01T10:02:47.751Z,7.16
2023-02-01T10:05:18.596Z,6.95
2023-02-01T10:07:52.020Z,6.80
2023-02-01T10:10:28.352Z,7.27
2023-02-01T10:13:22.451Z,6.58
2023-02-01T10:16:04.530Z,7.37
2023-02-01T10:18:56.050Z,7.88
2023-02-01T10:21:40.522Z,7.03
2023-02-01T10:24:20.357Z,7.58
2023-02-01T10:26:56.264Z,7.57
2023-02-01T10:29:29.212Z,7.40
2023-02-01T10:32:02.426Z,6.77
2023-02-01T10:34:33.443Z,7.46
2023-02-01T10:37:03.544Z,7.43
2023-02-01T10:39:31.820Z,7.52
2023-02-01T10:42:05.478Z,7.08
2023-02-01T10:44:34.151Z,6.98
2023-02-01T10:47:02.590Z,6.67
2023-02-01T10:49:39.503Z,6.85
2023-02-01T10:52:16.349Z,6.48
2023-02-01T10:54:47.273Z,7.11
2023-02-01T10:57:31.834Z,7.15
2023-02-01T11:00:05.405Z,7.48
2023-02-01T11:02:35.175Z,7.22
2023-02-01T11:05:06.600Z,7.04
2023-02-01T11:07:39.455Z,7.10
2023-02-01T11:10:38.134Z,7.23
2023-02-01T11:13:07.527Z,7.13
2023-02-01T11:15:38.622Z,7.20
2023-02-01T11:18:18.581Z,7.34
2023-02-01T11:20:50.408Z,7.33
2023-02-01T11:23:20.932Z,7.16
2023-02-01T11:25:53.894Z,7.32
2023-02-01T11:28:30.907Z,7.62
2023-02-01T11:31:02.285Z,6.68
2023-02-01T11:33:36.109Z,7.57
2023-02-01T11:36:12.065Z,7.71
2023-02-01T11:38:40.912Z,7.57
2023-02-01T11:41:16.491Z,5.84
2023-02-01T11:44:18.653Z,7.24
2023-02-01T11:46:49.733Z,7.51
2023-02-01T11:49:24.605Z,7.66
2023-02-01T11:52:12.165Z,7.33
2023-02-01T11:54:52.467Z,7.49
2023-02-01T11:57:33.837Z,7.38
2023-02-01T12:00:14.250Z,7.64
2023-02-01T12:03:03.138Z,7.47
2023-02-01T12:05:44.152Z,7.55
2023-02-01T12:08:24.255Z,7.63
2023-02-01T12:11:08.557Z,6.99
2023-02-01T12:13:48.181Z,7.12
2023-02-01T12:16:28.366Z,7.56
2023-02-01T12:19:14.071Z,7.48
2023-02-01T12:22:03.996Z,7.47
2023-02-01T12:25:16.639Z,7.13
2023-02-01T12:28:02.969Z,7.11
2023-02-01T12:30:45.426Z,7.06
2023-02-01T12:33:33.310Z,7.34
2023-02-01T12:36:13.415Z,7.52
2023-02-01T12:38:59.679Z,7.28
2023-02-01T12:41:43.379Z,7.46
2023-02-01T12:44:26.407Z,7.10
2023-02-01T12:47:00.719Z,7.07
2023-02-01T12:49:43.985Z,6.81
2023-02-01T12:52:19.640Z,6.97
2023-02-01T12:54:55.378Z,6.76
2023-02-01T12:57:27.619Z,6.96
2023-02-01T13:00:02.054Z,6.92
2023-02-01T13:02:40.549Z,6.85
2023-02-01T13:05:19.408Z,6.84
2023-02-01T13:07:53.653Z,6.86
2023-02-01T13:10:28.754Z,7.29
2023-02-01T13:13:03.908Z,7.02
2023-02-01T13:15:50.068Z,6.70
2023-02-01T13:18:21.298Z,6.89
2023-02-01T13:20:55.975Z,6.69
2023-02-01T13:23:32.319Z,7.10
2023-02-01T13:26:01.830Z,7.07
2023-02-01T13:28:49.763Z,7.41
2023-02-01T13:31:40.816Z,7.14
2023-02-01T13:35:06.785Z,6.36
2023-02-01T13:38:11.684Z,6.57
2023-02-01T13:40:44.312Z,6.57
2023-02-01T13:43:21.818Z,6.64
2023-02-01T13:45:53.178Z,6.99
2023-02-01T13:48:26.054Z,7.03
2023-02-01T13:50:56.457Z,6.88
2023-02-01T13:53:30.590Z,6.52
2023-02-01T13:56:01.403Z,7.09
2023-02-01T13:58:34.781Z,7.08
2023-02-01T14:01:34.622Z,7.20
2023-02-01T14:04:04.222Z,6.89
2023-02-01T14:06:47.422Z,6.66
2023-02-01T14:09:41.774Z,7.23
2023-02-01T14:12:50.380Z,7.04
2023-02-01T14:15:31.984Z,7.17
2023-02-01T14:18:03.280Z,7.13
2023-02-01T14:20:42.369Z,7.28
2023-02-01T14:23:20.339Z,7.19
2023-02-01T14:26:03.599Z,6.83
2023-02-01T14:28:35.411Z,6.81
2023-02-01T14:31:17.683Z,6.88
2023-02-01T14:33:46.445Z,6.48
2023-02-01T14:36:28.705Z,6.47
2023-02-01T14:38:56.840Z,6.63
2023-02-01T14:41:35.835Z,6.66
2023-02-01T14:44:32.435Z,6.18
2023-02-01T14:47:35.895Z,6.77
2023-02-01T14:50:31.814Z,6.85
2023-02-01T14:53:21.428Z,6.75
2023-02-01T14:55:51.336Z,7.15
2023-02-01T14:58:35.253Z,6.81
2023-02-01T15:01:06.073Z,6.76
2023-02-01T15:03:45.739Z,6.72
2023-02-01T15:06:35.893Z,7.07
2023-02-01T15:09:06.673Z,7.02
2023-02-01T15:11:56.393Z,7.29
2023-02-01T15:14:26.909Z,6.97
2023-02-01T15:16:55.807Z,6.57
2023-02-01T15:19:29.161Z,6.60
2023-02-01T15:22:03.166Z,6.63
2023-02-01T15:24:34.075Z,6.85
2023-02-01T15:27:11.419Z,6.80
2023-02-01T15:29:42.561Z,6.96
2023-02-01T15:32:30.846Z,7.30
2023-02-01T15:34:59.012Z,7.31
2023-02-01T15:37:27.107Z,7.25
2023-02-01T15:40:23.907Z,7.06
2023-02-01T15:42:56.528Z,7.59
2023-02-01T15:45:29.108Z,7.24
2023-02-01T15:47:58.723Z,7.67
2023-02-01T15:50:27.578Z,7.28
2023-02-01T15:52:57.944Z,6.90
2023-02-01T15:55:32.320Z,7.19
2023-02-01T15:58:02.326Z,7.07
2023-02-01T16:00:43.713Z,6.88
2023-02-01T16:03:36.541Z,7.20
2023-02-01T16:06:06.886Z,7.42
2023-02-01T16:08:38.373Z,7.80
2023-02-01T16:11:23.651Z,7.87
2023-02-01T16:13:53.893Z,7.40
2023-02-01T16:16:23.162Z,7.59
2023-02-01T16:18:53.363Z,7.38
2023-02-01T16:21:23.645Z,7.72
2023-02-01T16:23:53.191Z,7.52
2023-02-01T16:26:30.308Z,6.94
2023-02-01T16:28:58.421Z,7.05
2023-02-01T16:31:30.495Z,7.61
2023-02-01T16:34:04.571Z,7.33
2023-02-01T16:36:32.610Z,7.19
2023-02-01T16:39:04.794Z,7.34
2023-02-01T16:41:35.597Z,6.97
2023-02-01T16:44:03.560Z,7.34
2023-02-01T16:46:40.382Z,7.65
2023-02-01T16:49:10.249Z,7.07
2023-02-01T16:51:42.764Z,6.99
2023-02-01T16:54:10.711Z,7.10
2023-02-01T16:56:41.806Z,6.83
2023-02-01T16:59:13.515Z,7.17
2023-02-01T17:01:45.967Z,7.02
2023-02-01T17:04:19.346Z,7.42
2023-02-01T17:06:52.344Z,7.77
2023-02-01T17:09:21.903Z,7.41
2023-02-01T17:11:49.873Z,7.44
2023-02-01T17:14:19.923Z,7.26
2023-02-01T17:16:50.615Z,7.52
2023-02-01T17:19:25.132Z,7.64
2023-02-01T17:21:56.650Z,7.56
2023-02-01T17:24:30.741Z,7.59
2023-02-01T17:27:05.408Z,7.53
2023-02-01T17:29:36.701Z,7.76
2023-02-01T17:32:06.758Z,7.55
2023-02-01T17:34:36.898Z,7.40
2023-02-01T17:37:08.077Z,7.54
2023-02-01T17:39:57.487Z,7.22
2023-02-01T17:42:26.365Z,7.22
2023-02-01T17:44:57.768Z,7.49
2023-02-01T17:47:28.210Z,7.65
2023-02-01T17:49:57.347Z,7.72
2023-02-01T17:52:26.923Z,6.94
2023-02-01T17:55:07.074Z,7.32
2023-02-01T17:57:35.220Z,7.13
2023-02-01T18:00:09.353Z,5.86
2023-02-01T18:02:42.100Z,7.36
2023-02-01T18:05:21.384Z,7.22
2023-02-01T18:07:51.865Z,7.60
2023-02-01T18:10:21.855Z,7.82
2023-02-01T18:12:56.635Z,7.09
2023-02-01T18:15:27.689Z,7.16
2023-02-01T18:18:01.013Z,6.72
2023-02-01T18:20:31.251Z,6.54
2023-02-01T18:23:01.928Z,6.49
2023-02-01T18:25:34.177Z,6.95
2023-02-01T18:28:07.144Z,7.10
2023-02-01T18:30:36.799Z,6.67
2023-02-01T18:33:06.982Z,6.58
2023-02-01T18:35:35.489Z,7.21
2023-02-01T18:38:06.570Z,6.94
2023-02-01T18:40:37.876Z,7.20
2023-02-01T18:43:05.989Z,7.21
2023-02-01T18:45:37.358Z,7.15
2023-02-01T18:48:09.537Z,7.72
2023-02-01T18:50:41.610Z,7.55
2023-02-01T18:53:14.360Z,7.71
2023-02-01T18:55:42.818Z,7.19
2023-02-01T18:58:17.891Z,7.18
2023-02-01T19:00:50.547Z,7.10
2023-02-01T19:03:26.681Z,6.74
2023-02-01T19:06:00.220Z,6.81
2023-02-01T19:08:40.892Z,6.80
2023-02-01T19:11:10.084Z,6.78
2023-02-01T19:13:38.639Z,6.80
2023-02-01T19:16:13.627Z,6.85
2023-02-01T19:18:43.121Z,6.49
2023-02-01T19:21:13.372Z,6.69
2023-02-01T19:23:47.175Z,7.07
2023-02-01T19:26:17.633Z,6.85
2023-02-01T19:28:48.090Z,6.99
2023-02-01T19:31:25.786Z,6.81
2023-02-01T19:33:56.747Z,6.85
2023-02-01T19:36:26.807Z,6.62
2023-02-01T19:39:00.569Z,6.80
2023-02-01T19:41:32.728Z,6.79
2023-02-01T19:44:00.877Z,6.93
2023-02-01T19:46:28.837Z,6.69
2023-02-01T19:49:00.912Z,6.81
2023-02-01T19:51:32.081Z,6.99
2023-02-01T19:54:02.042Z,6.63
2023-02-01T19:56:35.052Z,6.62
2023-02-01T19:59:03.641Z,6.78
2023-02-01T20:01:31.380Z,7.11
2023-02-01T20:04:05.370Z,6.81
2023-02-01T20:06:38.676Z,7.16
2023-02-01T20:09:07.365Z,6.84
2023-02-01T20:11:41.814Z,7.04
2023-02-01T20:14:10.274Z,6.95
2023-02-01T20:16:44.292Z,6.69
2023-02-01T20:19:13.569Z,7.03
2023-02-01T20:21:43.079Z,6.44
2023-02-01T20:24:17.066Z,6.99
2023-02-01T20:26:49.084Z,7.27
2023-02-01T20:29:20.128Z,7.59
2023-02-01T20:31:51.572Z,6.85
2023-02-01T20:34:24.620Z,6.98
2023-02-01T20:36:55.291Z,7.36
2023-02-01T20:39:23.153Z,7.37
2023-02-01T20:41:56.924Z,7.09
2023-02-01T20:44:26.461Z,7.48
2023-02-01T20:46:54.381Z,7.01
2023-02-01T20:49:23.990Z,6.96
2023-02-01T20:51:55.357Z,6.88
2023-02-01T20:54:26.061Z,7.20
2023-02-01T20:56:55.516Z,6.97
2023-02-01T20:59:26.501Z,6.98
2023-02-01T21:01:56.848Z,6.55
2023-02-01T21:04:29.706Z,6.82
2023-02-01T21:06:58.947Z,7.09
2023-02-01T21:09:35.703Z,6.84
2023-02-01T21:12:07.389Z,6.63
2023-02-01T21:14:36.990Z,6.69
2023-02-01T21:17:08.039Z,7.14
2023-02-01T21:19:49.238Z,6.73
2023-02-01T21:22:20.200Z,6.98
2023-02-01T21:24:53.931Z,7.43
2023-02-01T21:27:24.145Z,6.84
2023-02-01T21:29:53.044Z,7.09
2023-02-01T21:32:25.398Z,7.03
2023-02-01T21:34:55.119Z,6.79
2023-02-01T21:37:25.542Z,6.87
2023-02-01T21:39:54.930Z,7.38
2023-02-01T21:42:24.778Z,6.57
2023-02-01T21:44:55.250Z,6.58
2023-02-01T21:47:26.036Z,6.78
2023-02-01T21:49:57.799Z,6.60
2023-02-01T21:52:26.047Z,6.73
2023-02-01T21:55:07.306Z,6.70
2023-02-01T21:57:38.344Z,6.76
2023-02-01T22:00:10.045Z,6.91
2023-02-01T22:02:37.929Z,6.87
2023-02-01T22:05:09.568Z,7.08
2023-02-01T22:07:37.427Z,6.87
2023-02-01T22:10:12.422Z,6.90
2023-02-01T22:12:45.085Z,6.50
2023-02-01T22:15:13.289Z,4.58
2023-02-01T22:17:41.131Z,6.45
2023-02-01T22:20:14.275Z,6.03
2023-02-01T22:22:42.309Z,6.38
2023-02-01T22:25:10.597Z,6.61
2023-02-01T22:28:32.003Z,6.61
2023-02-01T22:30:31.948Z,6.76
2023-02-01T22:32:59.808Z,6.23
2023-02-01T22:35:39.360Z,6.56
2023-02-01T22:38:07.409Z,6.74
2023-02-01T22:40:36.397Z,6.55
2023-02-01T22:43:04.197Z,6.42
2023-02-01T22:45:32.028Z,6.52
2023-02-01T22:48:03.216Z,6.54
2023-02-01T22:50:32.863Z,6.36
2023-02-01T22:53:00.801Z,6.51
2023-02-01T22:55:28.832Z,6.37
2023-02-01T22:57:59.267Z,6.64
2023-02-01T23:00:27.315Z,6.42
2023-02-01T23:02:55.609Z,6.63
2023-02-01T23:05:27.427Z,6.57
2023-02-01T23:07:58.892Z,6.62
2023-02-01T23:10:26.809Z,6.61
2023-02-01T23:12:54.702Z,6.59
2023-02-01T23:15:22.856Z,6.80
2023-02-01T23:17:51.019Z,6.52
2023-02-01T23:20:22.928Z,6.22
2023-02-01T23:22:54.013Z,6.43
2023-02-01T23:25:25.193Z,6.60
2023-02-01T23:27:54.653Z,6.57
2023-02-01T23:30:25.059Z,6.83
2023-02-01T23:32:52.951Z,6.52
2023-02-01T23:35:25.511Z,7.19
2023-02-01T23:37:53.696Z,7.02
2023-02-01T23:40:22.991Z,7.10
2023-02-01T23:43:07.345Z,6.85
2023-02-01T23:45:35.206Z,7.09
2023-02-01T23:48:05.640Z,6.75
2023-02-01T23:50:36.467Z,6.78
2023-02-01T23:53:13.315Z,6.99
2023-02-01T23:55:43.641Z,7.02
2023-02-01T23:58:11.689Z,6.97
